Time;durP1;ratioP1;P1;durP2;ratioP2;P2;SDS_P1;SDS_P2;PMS_P1;PMS_P2;Temp;Humidity;BMP_temperature;BMP_pressure;BME280_temperature;BME280_humidity;BME280_pressure;Samples;Min_cycle;Max_cycle;Signal;HPM_P1;HPM_P2
2023/01/27 00:01:40;;;;;;;114.30;51.40;;;0.30;99.90;;;;;;10303627;28;20037;-88
2023/01/27 00:06:40;;;;;;;126.07;55.47;;;0.40;99.90;;;;;;10321332;28;20177;-89
2023/01/27 00:17:00;;;;;;;123.43;54.13;;;0.40;99.90;;;;;;10321271;28;20074;-88
2023/01/27 00:27:20;;;;;;;119.93;52.90;;;0.40;99.90;;;;;;10320633;28;20042;-89
2023/01/27 00:37:39;;;;;;;130.43;54.17;;;0.40;99.90;;;;;;10320674;28;20042;-89
2023/01/27 00:42:40;;;;;;;125.80;54.10;;;0.30;99.90;;;;;;10319420;28;20034;-90
2023/01/27 00:47:40;;;;;;;130.03;53.10;;;0.20;99.90;;;;;;10301347;28;20812;-88
2023/01/27 00:52:42;;;;;;;126.53;53.23;;;0.20;99.90;;;;;;10302666;28;20530;-88
2023/01/27 00:57:42;;;;;;;112.53;44.53;;;0.10;99.90;;;;;;10303578;28;20059;-88
2023/01/27 01:02:43;;;;;;;114.33;48.13;;;0.00;99.90;;;;;;10320435;28;20500;-88
2023/01/27 01:07:43;;;;;;;105.60;44.67;;;-0.10;99.90;;;;;;10317552;28;20037;-88
2023/01/27 01:12:44;;;;;;;105.37;44.07;;;-0.10;99.90;;;;;;10319332;28;20045;-88
2023/01/27 01:17:44;;;;;;;120.10;49.33;;;-0.20;99.90;;;;;;10317677;28;20658;-88
2023/01/27 01:22:45;;;;;;;116.33;48.03;;;-0.10;99.90;;;;;;10319899;28;20049;-89
2023/01/27 01:27:45;;;;;;;122.03;49.50;;;-0.10;99.90;;;;;;10317540;28;20044;-88
2023/01/27 01:32:46;;;;;;;117.80;48.87;;;-0.20;99.90;;;;;;10318677;28;20100;-88
2023/01/27 01:37:47;;;;;;;116.77;49.60;;;-0.20;99.90;;;;;;10334992;28;20038;-88
2023/01/27 01:43:00;;;;;;;116.70;50.70;;;-0.20;99.90;;;;;;10317180;28;20034;-88
2023/01/27 01:48:21;;;;;;;109.63;46.17;;;-0.30;99.90;;;;;;10316889;28;20030;-89
2023/01/27 01:53:28;;;;;;;112.63;48.73;;;-0.20;99.90;;;;;;10305443;28;20046;-88
2023/01/27 01:58:28;;;;;;;110.00;46.63;;;-0.10;99.90;;;;;;10318689;28;20105;-89
2023/01/27 02:03:29;;;;;;;109.47;47.63;;;-0.10;99.90;;;;;;10324609;28;20085;-88
2023/01/27 02:08:36;;;;;;;110.60;44.47;;;-0.10;99.90;;;;;;10324334;28;20125;-88
2023/01/27 02:13:37;;;;;;;97.20;39.50;;;-0.20;99.90;;;;;;10323251;28;20097;-89
2023/01/27 02:18:39;;;;;;;100.25;42.75;;;-0.10;99.90;;;;;;10341311;23;20033;-88
2023/01/27 02:23:40;;;;;;;97.60;39.97;;;;;;;;;;10365802;28;20026;-89
2023/01/27 02:28:41;;;;;;;88.43;38.47;;;-1.20;99.90;;;;;;10364771;28;20038;-89
2023/01/27 02:33:41;;;;;;;87.17;37.70;;;-0.10;99.90;;;;;;10363790;28;20069;-88
2023/01/27 02:38:49;;;;;;;84.30;37.80;;;-0.10;99.90;;;;;;10363951;28;20504;-89
2023/01/27 02:43:50;;;;;;;85.57;37.40;;;-0.10;99.90;;;;;;10338177;28;20022;-89
2023/01/27 02:48:51;;;;;;;86.77;37.20;;;-0.20;99.90;;;;;;10351411;28;20030;-88
2023/01/27 02:53:52;;;;;;;88.47;36.77;;;-0.10;99.90;;;;;;10339208;28;20049;-88
2023/01/27 02:58:52;;;;;;;78.40;35.47;;;-0.20;99.90;;;;;;10352929;28;20038;-88
2023/01/27 03:03:53;;;;;;;75.43;31.80;;;-0.20;99.90;;;;;;10359940;28;20041;-88
2023/01/27 03:08:54;;;;;;;83.73;36.27;;;-0.20;99.90;;;;;;10362535;28;20049;-89
2023/01/27 03:13:54;;;;;;;76.33;32.67;;;-0.10;99.90;;;;;;10352815;28;20055;-89
2023/01/27 03:18:55;;;;;;;77.10;31.13;;;-0.10;99.90;;;;;;10362157;28;20045;-88
2023/01/27 03:23:56;;;;;;;69.53;30.83;;;-0.10;99.90;;;;;;10362710;28;20122;-88
2023/01/27 03:34:15;;;;;;;75.17;29.50;;;-0.20;99.90;;;;;;10340576;28;20500;-88
2023/01/27 03:49:54;;;;;;;74.87;30.37;;;-0.30;99.90;;;;;;10352502;28;20049;-88
2023/01/27 03:54:54;;;;;;;73.37;31.10;;;-0.30;99.90;;;;;;10355013;28;20441;-87
2023/01/27 03:59:56;;;;;;;65.87;28.80;;;-0.40;99.90;;;;;;10352009;28;20525;-88
2023/01/27 04:10:19;;;;;;;64.17;27.23;;;-0.40;99.90;;;;;;10338951;28;20034;-90
2023/01/27 04:15:19;;;;;;;65.37;26.13;;;-0.40;99.90;;;;;;10338984;28;20092;-89
2023/01/27 04:20:20;;;;;;;60.40;25.77;;;-0.40;99.90;;;;;;10348985;28;20115;-86
2023/01/27 04:25:20;;;;;;;57.67;25.13;;;-0.50;99.90;;;;;;10355920;28;20161;-87
2023/01/27 04:30:21;;;;;;;51.97;22.70;;;-0.50;99.90;;;;;;10340460;28;20085;-87
2023/01/27 04:35:22;;;;;;;73.67;31.53;;;-0.50;99.90;;;;;;10351739;28;20056;-89
2023/01/27 04:40:22;;;;;;;104.43;48.17;;;-0.60;99.90;;;;;;10346866;28;20036;-86
2023/01/27 04:45:23;;;;;;;88.43;38.70;;;-0.60;99.90;;;;;;10351257;28;20515;-89
2023/01/27 04:50:24;;;;;;;77.23;35.67;;;-0.60;99.90;;;;;;10350342;28;20037;-87
2023/01/27 04:55:25;;;;;;;65.93;27.87;;;-0.60;99.90;;;;;;10344952;28;20701;-84
2023/01/27 05:00:26;;;;;;;55.53;22.80;;;-0.60;99.90;;;;;;10355763;28;20080;-88
2023/01/27 05:05:27;;;;;;;52.07;21.97;;;-0.70;99.90;;;;;;10340681;28;20037;-88
2023/01/27 05:10:27;;;;;;;57.00;24.37;;;-0.80;99.90;;;;;;10330891;28;20034;-86
2023/01/27 05:15:29;;;;;;;48.57;20.40;;;-0.80;99.90;;;;;;10346862;28;20516;-84
2023/01/27 05:20:30;;;;;;;55.27;23.37;;;-0.80;99.90;;;;;;10347899;28;20598;-86
2023/01/27 05:25:31;;;;;;;52.17;23.20;;;;;;;;;;10344773;28;20065;-88
2023/01/27 05:30:32;;;;;;;53.67;22.13;;;;;;;;;;10357221;28;20125;-88
2023/01/27 05:35:34;;;;;;;51.40;24.23;;;;;;;;;;10369040;28;20485;-87
2023/01/27 05:40:35;;;;;;;55.77;24.10;;;;;;;;;;10368809;28;20038;-87
2023/01/27 05:45:35;;;;;;;52.10;23.33;;;;;;;;;;10350641;28;20481;-87
2023/01/27 05:50:36;;;;;;;57.53;24.23;;;;;;;;;;10355879;28;20030;-88
2023/01/27 05:55:37;;;;;;;57.87;24.67;;;;;;;;;;10368471;28;20042;-87
2023/01/27 06:00:38;;;;;;;57.00;26.33;;;;;;;;;;10368808;28;20036;-87
2023/01/27 06:05:48;;;;;;;60.13;26.23;;;;;;;;;;10350438;28;20449;-87
2023/01/27 06:10:49;;;;;;;59.63;25.87;;;;;;;;;;10350305;28;20034;-87
2023/01/27 06:15:50;;;;;;;61.30;27.90;;;;;;;;;;10368078;28;20042;-87
2023/01/27 06:20:51;;;;;;;57.60;25.67;;;;;;;;;;10368355;28;20057;-88
2023/01/27 06:25:53;;;;;;;59.00;26.13;;;;;;;;;;10368250;28;20022;-88
2023/01/27 06:30:54;;;;;;;59.17;26.10;;;;;;;;;;10349546;28;20025;-88
2023/01/27 06:35:59;;;;;;;64.53;27.40;;;;;;;;;;10367005;28;20044;-87
2023/01/27 06:41:01;;;;;;;66.10;28.13;;;;;;;;;;10349374;28;20034;-87
2023/01/27 06:46:02;;;;;;;76.20;30.23;;;;;;;;;;10349236;28;20041;-88
2023/01/27 06:51:03;;;;;;;61.20;27.43;;;;;;;;;;10366418;28;20464;-87
2023/01/27 06:56:04;;;;;;;59.07;26.97;;;;;;;;;;10365647;28;20038;-87
2023/01/27 07:01:05;;;;;;;65.83;29.37;;;;;;;;;;10366540;28;20444;-88
2023/01/27 07:06:07;;;;;;;57.50;26.83;;;;;;;;;;10348076;28;20041;-87
2023/01/27 07:11:08;;;;;;;52.60;24.10;;;;;;;;;;10348556;28;20513;-89
2023/01/27 07:16:09;;;;;;;61.60;27.43;;;;;;;;;;10348196;28;20057;-89
2023/01/27 07:21:10;;;;;;;65.47;27.00;;;;;;;;;;10347654;28;20165;-88
2023/01/27 07:26:11;;;;;;;62.87;27.97;;;;;;;;;;10365957;28;20378;-87
2023/01/27 07:31:12;;;;;;;59.87;26.77;;;;;;;;;;10347298;28;20060;-88
2023/01/27 07:36:13;;;;;;;68.80;28.23;;;;;;;;;;10348093;28;20061;-88
2023/01/27 07:41:14;;;;;;;61.83;27.50;;;;;;;;;;10347515;28;20087;-87
2023/01/27 07:46:15;;;;;;;63.77;27.50;;;;;;;;;;10347848;28;20065;-88
2023/01/27 07:51:16;;;;;;;62.57;27.73;;;;;;;;;;10347142;28;20034;-89
2023/01/27 07:56:17;;;;;;;63.03;28.23;;;;;;;;;;10345631;28;20447;-89
2023/01/27 08:01:17;;;;;;;66.33;28.00;;;;;;;;;;10351021;28;20087;-89
2023/01/27 08:06:18;;;;;;;62.93;28.67;;;;;;;;;;10364271;28;20037;-87
2023/01/27 08:11:20;;;;;;;60.30;27.70;;;;;;;;;;10346133;28;20049;-88
2023/01/27 08:16:21;;;;;;;57.10;26.57;;;;;;;;;;10363647;28;20069;-87
2023/01/27 08:21:22;;;;;;;57.33;26.73;;;;;;;;;;10345572;28;20134;-88
2023/01/27 08:26:23;;;;;;;60.20;26.10;;;;;;;;;;10345806;28;20568;-87
2023/01/27 08:31:24;;;;;;;66.13;30.03;;;;;;;;;;10345315;28;20033;-88
2023/01/27 08:36:25;;;;;;;66.77;26.97;;;;;;;;;;10363213;28;20052;-89
2023/01/27 08:41:26;;;;;;;58.40;26.10;;;;;;;;;;10362686;28;20052;-89
2023/01/27 08:46:27;;;;;;;55.80;26.50;;;;;;;;;;10344075;28;20033;-87
2023/01/27 08:51:28;;;;;;;52.83;25.07;;;;;;;;;;10344624;28;20520;-88
2023/01/27 08:56:29;;;;;;;60.10;26.43;;;;;;;;;;10344284;28;20064;-90
2023/01/27 09:01:30;;;;;;;52.63;24.83;;;;;;;;;;10344277;28;20079;-88
2023/01/27 09:06:31;;;;;;;53.87;24.50;;;;;;;;;;10343052;28;20033;-88
2023/01/27 09:11:32;;;;;;;59.80;26.37;;;;;;;;;;10361474;28;20033;-88
2023/01/27 09:16:33;;;;;;;58.90;24.97;;;;;;;;;;10356824;28;20132;-87
2023/01/27 09:21:34;;;;;;;51.97;24.03;;;;;;;;;;10360818;28;20065;-88
2023/01/27 09:26:35;;;;;;;56.57;25.20;;;;;;;;;;10362078;28;20040;-88
2023/01/27 09:31:36;;;;;;;61.73;26.50;;;;;;;;;;10343968;28;20072;-88
2023/01/27 09:36:40;;;;;;;65.70;27.80;;;;;;;;;;10356118;28;20136;-87
2023/01/27 09:41:55;;;;;;;61.50;26.87;;;;;;;;;;10361138;28;20173;-87
2023/01/27 09:47:08;;;;;;;124.03;42.37;;;;;;;;;;10349443;28;20038;-87
2023/01/27 09:52:15;;;;;;;55.77;23.63;;;;;;;;;;10342543;28;20388;-87
2023/01/27 09:57:29;;;;;;;57.53;24.20;;;;;;;;;;10342788;28;20030;-87
2023/01/27 10:02:30;;;;;;;52.20;24.07;;;;;;;;;;10342715;28;20097;-87
2023/01/27 10:07:43;;;;;;;51.17;21.43;;;;;;;;;;10342581;28;20729;-86
2023/01/27 10:12:47;;;;;;;63.47;26.37;;;;;;;;;;10360310;28;20210;-88
2023/01/27 10:17:57;;;;;;;52.17;22.60;;;;;;;;;;10361485;28;20030;-88
2023/01/27 10:23:17;;;;;;;56.80;24.67;;;;;;;;;;10368557;28;20103;-86
2023/01/27 10:28:22;;;;;;;53.57;22.87;;;0.30;99.90;;;;;;10367894;28;20513;-87
2023/01/27 10:33:34;;;;;;;66.35;25.00;;;0.30;99.90;;;;;;10367526;28;20042;-87
2023/01/27 10:38:48;;;;;;;54.87;24.83;;;0.30;99.90;;;;;;10366796;28;20026;-87
2023/01/27 10:44:07;;;;;;;50.20;22.73;;;0.50;99.90;;;;;;10349106;28;20033;-87
2023/01/27 10:49:21;;;;;;;51.80;23.50;;;0.40;99.90;;;;;;10367439;28;20022;-87
2023/01/27 10:54:34;;;;;;;51.27;22.60;;;0.50;99.90;;;;;;10366783;28;20069;-87
2023/01/27 10:59:52;;;;;;;53.97;21.97;;;;;;;;;;10366637;28;20636;-87
2023/01/27 11:05:13;;;;;;;53.20;22.87;;;0.40;99.90;;;;;;10348775;28;20393;-89
2023/01/27 11:10:18;;;;;;;45.73;20.80;;;;;;;;;;10348778;28;20740;-88
2023/01/27 11:15:22;;;;;;;51.40;22.60;;;;;;;;;;10348474;28;20147;-89
2023/01/27 11:20:31;;;;;;;43.73;18.63;;;;;;;;;;10348082;28;20066;-88
2023/01/27 11:25:37;;;;;;;46.63;21.30;;;;;;;;;;10365648;28;20021;-88
2023/01/27 11:30:42;;;;;;;46.35;20.67;;;;;;;;;;10346953;28;20389;-88
2023/01/27 11:35:43;;;;;;;44.63;18.98;;;;;;;;;;10365190;28;20069;-88
2023/01/27 11:40:45;;;;;;;50.70;23.80;;;;;;;;;;10347079;28;20132;-89
2023/01/27 11:45:47;;;;;;;48.40;23.17;;;;;;;;;;10346632;28;20037;-90
2023/01/27 11:50:48;;;;;;;48.80;22.27;;;;;;;;;;10364856;28;20037;-89
2023/01/27 11:55:51;;;;;;;46.60;21.17;;;;;;;;;;10337635;28;20034;-88
2023/01/27 12:01:05;;;;;;;44.10;20.07;;;;;;;;;;10359534;28;20034;-88
2023/01/27 12:06:11;;;;;;;53.10;22.93;;;;;;;;;;10346011;28;20674;-89
2023/01/27 12:16:52;;;;;;;43.90;20.57;;;;;;;;;;10382430;28;20413;-88
2023/01/27 12:21:55;;;;;;;47.07;21.43;;;;;;;;;;10362933;28;20046;-88
2023/01/27 12:26:57;;;;;;;42.17;19.43;;;;;;;;;;10345541;28;20389;-88
2023/01/27 12:32:00;;;;;;;42.87;19.73;;;;;;;;;;10363250;28;20109;-88
2023/01/27 12:37:03;;;;;;;43.77;19.17;;;0.70;99.90;;;;;;10345441;28;20037;-89
2023/01/27 12:42:04;;;;;;;45.70;20.00;;;0.70;99.90;;;;;;10363202;28;20058;-89
2023/01/27 12:47:31;;;;;;;42.57;18.57;;;0.80;99.90;;;;;;10349502;28;20518;-88
2023/01/27 12:52:31;;;;;;;41.43;18.70;;;0.90;99.90;;;;;;10347619;28;20056;-88
2023/01/27 12:57:32;;;;;;;45.33;20.30;;;0.90;99.90;;;;;;10348886;28;20037;-89
2023/01/27 13:02:35;;;;;;;42.60;19.13;;;;;;;;;;10360228;28;20037;-88
2023/01/27 13:07:39;;;;;;;36.90;17.23;;;;;;;;;;10344281;28;20104;-89
2023/01/27 13:12:57;;;;;;;39.67;17.37;;;0.80;99.90;;;;;;10344016;28;20040;-88
2023/01/27 13:18:10;;;;;;;35.93;16.83;;;0.90;99.90;;;;;;10360148;28;20033;-88
2023/01/27 13:23:21;;;;;;;40.33;18.37;;;0.90;99.90;;;;;;10343458;28;20048;-88
2023/01/27 13:28:33;;;;;;;36.77;17.60;;;0.80;99.90;;;;;;10334871;28;20038;-89
2023/01/27 13:45:37;;;;;;;42.40;17.63;;;;;;;;;;10350500;28;20042;-87
2023/01/27 13:51:02;;;;;;;46.40;20.63;;;0.90;99.90;;;;;;10332268;28;20034;-87
2023/01/27 13:56:27;;;;;;;50.80;24.33;;;0.80;99.90;;;;;;10380556;28;20034;-87
2023/01/27 14:01:44;;;;;;;49.63;24.13;;;0.80;99.90;;;;;;10338251;28;20050;-87
2023/01/27 14:07:15;;;;;;;49.70;23.03;;;0.80;99.90;;;;;;10369739;28;20457;-87
2023/01/27 14:12:46;;;;;;;45.93;21.73;;;0.70;99.90;;;;;;10358017;28;20080;-87
2023/01/27 14:17:58;;;;;;;50.83;21.90;;;0.70;99.90;;;;;;10330443;28;20063;-87
2023/01/27 14:23:06;;;;;;;58.60;27.00;;;;;;;;;;10367799;28;20049;-86
2023/01/27 14:28:27;;;;;;;252.83;180.83;;;0.70;99.90;;;;;;10365578;28;20033;-87
2023/01/27 14:33:59;;;;;;;48.57;22.93;;;0.70;99.90;;;;;;10357156;28;20385;-87
2023/01/27 14:39:29;;;;;;;68.57;35.47;;;0.70;99.90;;;;;;10340651;28;20069;-87
2023/01/27 14:44:54;;;;;;;56.07;25.10;;;0.70;99.90;;;;;;10368323;28;20029;-87
2023/01/27 14:50:18;;;;;;;69.40;29.73;;;0.70;99.90;;;;;;10359582;28;20053;-88
2023/01/27 14:55:31;;;;;;;43.13;21.63;;;0.70;99.90;;;;;;10358073;28;20148;-90
2023/01/27 15:00:52;;;;;;;38.73;17.37;;;0.80;99.90;;;;;;10357514;28;20489;-89
2023/01/27 15:06:01;;;;;;;33.93;15.23;;;0.70;99.90;;;;;;10334197;28;20117;-88
2023/01/27 15:11:31;;;;;;;34.60;15.23;;;0.70;99.90;;;;;;10348474;28;20484;-88
2023/01/27 15:17:14;;;;;;;31.20;15.43;;;0.70;99.90;;;;;;10352795;28;20026;-90
2023/01/27 15:34:19;;;;;;;46.15;19.17;;;0.60;99.90;;;;;;10360853;28;20045;-89
2023/01/27 15:39:20;;;;;;;33.10;14.57;;;0.60;99.90;;;;;;10350599;28;20108;-89
2023/01/27 15:44:23;;;;;;;29.87;14.20;;;0.70;99.90;;;;;;10362662;28;20515;-91
2023/01/27 15:49:35;;;;;;;29.53;14.07;;;0.60;99.90;;;;;;10345266;28;20034;-90
2023/01/27 15:54:40;;;;;;;30.20;13.27;;;0.60;99.90;;;;;;10338171;28;20182;-90
2023/01/27 15:59:46;;;;;;;29.07;13.40;;;;;;;;;;10346468;28;20501;-89
2023/01/27 16:05:02;;;;;;;34.88;15.50;;;0.60;99.90;;;;;;10339366;28;20029;-89
2023/01/27 16:10:07;;;;;;;32.30;15.57;;;0.50;99.90;;;;;;10347923;28;20113;-88
2023/01/27 16:15:13;;;;;;;33.40;15.77;;;0.50;99.90;;;;;;10337902;28;20100;-88
2023/01/27 16:20:23;;;;;;;33.70;13.90;;;0.50;99.90;;;;;;10345779;28;20824;-88
2023/01/27 16:25:44;;;;;;;29.33;13.87;;;0.50;99.90;;;;;;10359920;28;20041;-89
2023/01/27 16:31:00;;;;;;;29.70;13.60;;;0.50;99.90;;;;;;10361341;28;20033;-85
2023/01/27 16:36:08;;;;;;;26.25;13.18;;;0.50;99.90;;;;;;10361497;28;20030;-86
2023/01/27 16:41:16;;;;;;;29.13;13.83;;;0.50;99.90;;;;;;10348940;28;20018;-88
2023/01/27 16:46:37;;;;;;;254.10;150.00;;;0.50;99.90;;;;;;10351658;28;20038;-88
2023/01/27 16:51:39;;;;;;;41.80;20.93;;;0.50;99.90;;;;;;10343105;28;20122;-88
2023/01/27 16:56:41;;;;;;;47.27;29.37;;;0.40;99.90;;;;;;10337242;28;20117;-85
2023/01/27 17:01:59;;;;;;;40.27;21.83;;;0.40;99.90;;;;;;10338108;28;20038;-87
2023/01/27 17:07:07;;;;;;;;;;;0.40;99.90;;;;;;10332803;28;20046;-89
2023/01/27 17:12:28;;;;;;;38.97;17.73;;;;;;;;;;10335816;28;19920;-85
2023/01/27 17:17:33;;;;;;;43.63;19.53;;;0.40;99.90;;;;;;10348746;28;20225;-86
2023/01/27 17:22:42;;;;;;;208.17;81.10;;;0.50;99.90;;;;;;10355136;28;20064;-86
2023/01/27 17:27:44;;;;;;;75.63;30.77;;;0.50;99.90;;;;;;10351696;28;20089;-86
2023/01/27 17:32:57;;;;;;;109.60;72.83;;;0.50;99.90;;;;;;10336289;28;20046;-85
2023/01/27 17:38:15;;;;;;;47.77;21.70;;;0.50;99.90;;;;;;10342976;28;20112;-87
2023/01/27 17:43:30;;;;;;;61.73;28.73;;;0.50;99.90;;;;;;10345132;28;20164;-86
2023/01/27 17:48:40;;;;;;;98.22;61.58;;;0.50;99.90;;;;;;10331720;28;20030;-85
2023/01/27 17:53:41;;;;;;;59.60;29.83;;;0.50;99.90;;;;;;10355833;28;20697;-86
2023/01/27 17:58:45;;;;;;;47.17;20.70;;;0.40;99.90;;;;;;10359649;28;20041;-86
2023/01/27 18:03:54;;;;;;;54.10;28.97;;;0.50;99.90;;;;;;10347398;28;20034;-89
2023/01/27 18:09:00;;;;;;;48.67;22.80;;;0.40;99.90;;;;;;10343458;28;20140;-86
2023/01/27 18:14:13;;;;;;;37.72;16.80;;;0.30;99.90;;;;;;10344624;28;20058;-86
2023/01/27 18:19:22;;;;;;;33.37;15.07;;;0.30;99.90;;;;;;10356542;28;20099;-84
2023/01/27 18:24:24;;;;;;;28.77;13.53;;;0.20;99.90;;;;;;10352721;28;20043;-85
2023/01/27 18:29:36;;;;;;;34.30;14.97;;;0.10;99.90;;;;;;10358353;28;20522;-85
2023/01/27 18:34:56;;;;;;;30.87;14.50;;;0.10;99.90;;;;;;10356420;28;20041;-84
2023/01/27 18:39:58;;;;;;;33.57;15.40;;;;;;;;;;10340891;28;20046;-85
2023/01/27 18:45:07;;;;;;;26.07;12.53;;;0.10;99.90;;;;;;10344525;28;20034;-85
2023/01/27 18:50:15;;;;;;;30.70;13.93;;;0.20;99.90;;;;;;10346922;28;20039;-85
2023/01/27 18:55:32;;;;;;;38.33;15.87;;;0.20;99.90;;;;;;10347331;28;20691;-86
2023/01/27 19:00:58;;;;;;;31.80;14.40;;;0.20;99.90;;;;;;10356833;28;20036;-85
2023/01/27 19:05:59;;;;;;;36.90;15.40;;;0.20;99.90;;;;;;10327802;28;20065;-87
2023/01/27 19:11:00;;;;;;;36.47;15.23;;;0.30;99.90;;;;;;10337659;28;20464;-85
2023/01/27 19:16:02;;;;;;;37.70;17.33;;;0.30;99.90;;;;;;10333409;28;20121;-86
2023/01/27 19:21:05;;;;;;;42.80;17.73;;;0.30;99.90;;;;;;10365960;28;20133;-89
2023/01/27 19:26:16;;;;;;;42.60;17.77;;;0.30;99.90;;;;;;10363993;28;20041;-87
2023/01/27 19:31:17;;;;;;;39.70;18.77;;;0.20;99.90;;;;;;10345104;28;20488;-85
2023/01/27 19:36:39;;;;;;;37.63;17.43;;;0.30;99.90;;;;;;10359143;28;20087;-86
2023/01/27 19:41:40;;;;;;;38.83;17.43;;;0.20;99.90;;;;;;10358142;28;20437;-88
2023/01/27 19:46:43;;;;;;;38.93;17.00;;;0.20;99.90;;;;;;10363235;28;20034;-89
2023/01/27 19:51:46;;;;;;;38.57;18.77;;;0.20;99.90;;;;;;10359792;28;20038;-88
2023/01/27 19:56:47;;;;;;;43.87;18.43;;;0.20;99.90;;;;;;10327530;28;20137;-88
2023/01/27 20:01:49;;;;;;;40.80;18.67;;;0.20;99.90;;;;;;10339685;28;20029;-91
2023/01/27 20:06:51;;;;;;;41.27;16.23;;;;;;;;;;10357634;28;20042;-91
2023/01/27 20:11:57;;;;;;;41.40;17.23;;;;;;;;;;10360998;28;20034;-87
2023/01/27 20:16:58;;;;;;;39.72;17.25;;;0.20;99.90;;;;;;10338376;28;20069;-88
2023/01/27 20:22:00;;;;;;;45.03;17.70;;;0.20;99.90;;;;;;10325574;28;20046;-87
2023/01/27 20:27:04;;;;;;;39.90;17.77;;;0.20;99.90;;;;;;10358837;28;20033;-88
2023/01/27 20:32:08;;;;;;;39.83;17.60;;;0.20;99.90;;;;;;10352229;28;20446;-87
2023/01/27 20:37:12;;;;;;;37.73;16.80;;;0.30;99.90;;;;;;10339139;28;20045;-91
2023/01/27 20:42:16;;;;;;;41.13;17.33;;;;;;;;;;10328308;28;20659;-89
2023/01/27 20:47:20;;;;;;;39.20;17.10;;;0.20;99.90;;;;;;10350362;28;20053;-88
2023/01/27 20:52:20;;;;;;;43.10;17.57;;;0.20;99.90;;;;;;10368519;28;20060;-88
2023/01/27 20:57:22;;;;;;;40.03;16.43;;;0.20;99.90;;;;;;10356139;28;20100;-88
2023/01/27 21:02:25;;;;;;;43.07;17.40;;;0.30;99.90;;;;;;10321087;28;20111;-89
2023/01/27 21:07:29;;;;;;;36.17;16.23;;;0.30;99.90;;;;;;10379374;28;20056;-89
2023/01/27 21:12:31;;;;;;;39.67;18.70;;;0.30;99.90;;;;;;10319217;28;20196;-88
2023/01/27 21:17:36;;;;;;;39.63;18.10;;;0.30;99.90;;;;;;10353785;28;20025;-88
2023/01/27 21:22:39;;;;;;;41.03;18.70;;;0.30;99.90;;;;;;10353711;28;20057;-87
2023/01/27 21:27:42;;;;;;;49.23;20.47;;;0.30;99.90;;;;;;10337168;28;20030;-88
2023/01/27 21:32:42;;;;;;;47.97;20.07;;;0.30;99.90;;;;;;10357267;28;20038;-88
2023/01/27 21:37:45;;;;;;;59.33;23.93;;;0.20;99.90;;;;;;10362328;28;20042;-88
2023/01/27 21:48:05;;;;;;;70.03;26.53;;;0.20;99.90;;;;;;10339107;28;20049;-89
2023/01/27 21:53:09;;;;;;;65.87;25.17;;;0.30;99.90;;;;;;10354105;28;20053;-88
2023/01/27 21:58:15;;;;;;;57.23;24.10;;;0.40;99.90;;;;;;10347327;28;20038;-89
2023/01/27 22:03:17;;;;;;;66.20;24.27;;;0.30;99.90;;;;;;10348753;28;20072;-88
2023/01/27 22:08:18;;;;;;;58.07;24.70;;;0.30;99.90;;;;;;10347610;28;20491;-87
2023/01/27 22:13:22;;;;;;;64.97;24.70;;;0.20;99.90;;;;;;10362678;28;20104;-86
2023/01/27 22:18:23;;;;;;;57.47;23.00;;;0.30;99.90;;;;;;10361467;28;20488;-88
2023/01/27 22:23:24;;;;;;;56.53;24.77;;;0.20;99.90;;;;;;10379656;28;20108;-88
2023/01/27 22:28:26;;;;;;;59.60;24.30;;;0.20;99.90;;;;;;10357779;28;20034;-88
2023/01/27 22:33:26;;;;;;;55.30;23.27;;;0.20;99.90;;;;;;10351795;28;20077;-88
2023/01/27 22:38:27;;;;;;;51.53;22.77;;;0.10;99.90;;;;;;10365200;28;20459;-89
2023/01/27 22:43:28;;;;;;;55.87;22.03;;;0.10;99.90;;;;;;10364995;28;20045;-87
2023/01/27 22:48:30;;;;;;;51.90;22.43;;;0.10;99.90;;;;;;10366624;28;20126;-87
2023/01/27 22:53:32;;;;;;;51.67;22.17;;;0.10;99.90;;;;;;10356697;28;20068;-88
2023/01/27 22:58:34;;;;;;;41.90;19.00;;;0.10;99.90;;;;;;10362026;28;20044;-88
2023/01/27 23:03:34;;;;;;;47.90;20.37;;;0.10;99.90;;;;;;10356280;28;20026;-87
2023/01/27 23:08:35;;;;;;;47.27;20.03;;;0.10;99.90;;;;;;10343179;28;20521;-88
2023/01/27 23:13:35;;;;;;;43.77;18.67;;;0.10;99.90;;;;;;10359549;28;20042;-90
2023/01/27 23:18:36;;;;;;;44.60;18.67;;;0.10;99.90;;;;;;10360452;28;20385;-88
2023/01/27 23:23:37;;;;;;;44.23;19.53;;;0.10;99.90;;;;;;10358751;28;20057;-88
2023/01/27 23:28:38;;;;;;;48.30;20.57;;;0.00;99.90;;;;;;10363577;28;20050;-87
2023/01/27 23:33:40;;;;;;;55.37;21.07;;;0.00;99.90;;;;;;10358201;28;20512;-88
2023/01/27 23:38:41;;;;;;;53.53;22.30;;;0.10;99.90;;;;;;10368085;28;20381;-88
2023/01/27 23:43:42;;;;;;;77.53;30.33;;;;;;;;;;10352871;28;20029;-86
2023/01/27 23:48:42;;;;;;;62.53;25.37;;;0.10;99.90;;;;;;10358343;28;20036;-86
2023/01/27 23:53:43;;;;;;;67.40;29.00;;;0.20;99.90;;;;;;10359936;28;20041;-86
2023/01/27 23:58:44;;;;;;;57.37;22.30;;;0.20;99.90;;;;;;10323657;28;20033;-88
